Time;durP1;ratioP1;P1;durP2;ratioP2;P2;SDS_P1;SDS_P2;PMS_P1;PMS_P2;Temp;Humidity;BMP_temperature;BMP_pressure;BME280_temperature;BME280_humidity;BME280_pressure;Samples;Min_cycle;Max_cycle;Signal;HPM_P1;HPM_P2
2022/09/15 00:01:00;;;;;;;21.48;17.85;;;13.10;92.80;;;;;;4981547;28;20121;-73
2022/09/15 00:03:27;;;;;;;23.52;19.35;;;13.10;92.90;;;;;;4986016;28;20034;-73
2022/09/15 00:05:53;;;;;;;21.38;16.92;;;13.10;92.90;;;;;;4984763;28;20517;-73
2022/09/15 00:08:20;;;;;;;21.00;18.08;;;13.00;93.10;;;;;;4983927;28;20057;-73
2022/09/15 00:10:54;;;;;;;22.98;17.85;;;13.00;93.20;;;;;;4975145;28;20093;-72
2022/09/15 00:13:21;;;;;;;22.83;19.05;;;13.00;93.30;;;;;;4982323;28;20509;-72
2022/09/15 00:15:47;;;;;;;25.38;19.05;;;13.00;93.30;;;;;;4990057;28;20039;-72
2022/09/15 00:18:13;;;;;;;20.98;17.90;;;13.00;93.40;;;;;;4984415;28;20034;-73
2022/09/15 00:20:41;;;;;;;21.30;18.35;;;13.00;93.40;;;;;;4982518;28;20473;-72
2022/09/15 00:23:07;;;;;;;19.67;17.20;;;13.00;93.50;;;;;;4982172;28;20819;-73
2022/09/15 00:25:33;;;;;;;22.15;17.80;;;13.00;93.40;;;;;;4985411;28;20047;-72
2022/09/15 00:27:58;;;;;;;23.08;19.08;;;13.00;93.30;;;;;;4981917;28;20038;-72
2022/09/15 00:30:24;;;;;;;24.30;20.23;;;13.00;93.30;;;;;;4979889;28;20566;-73
2022/09/15 00:32:50;;;;;;;20.70;17.83;;;13.00;93.30;;;;;;4985992;28;20038;-73
2022/09/15 00:35:16;;;;;;;21.33;18.13;;;13.00;93.30;;;;;;4984087;28;20042;-72
2022/09/15 00:37:42;;;;;;;20.27;17.58;;;13.00;93.30;;;;;;4981192;28;20057;-72
2022/09/15 00:40:08;;;;;;;20.73;17.02;;;13.00;93.30;;;;;;4983673;28;20035;-73
2022/09/15 00:42:33;;;;;;;22.20;18.80;;;13.10;93.40;;;;;;4979634;28;20386;-72
2022/09/15 00:45:02;;;;;;;22.65;18.65;;;13.10;93.20;;;;;;4985107;28;20049;-73
2022/09/15 00:47:35;;;;;;;21.05;18.23;;;13.10;93.10;;;;;;4982765;28;20038;-73
2022/09/15 00:50:15;;;;;;;21.70;18.25;;;13.10;93.10;;;;;;4980870;28;20041;-72
2022/09/15 00:52:52;;;;;;;22.67;18.58;;;13.10;93.00;;;;;;4983117;28;20042;-73
2022/09/15 00:55:38;;;;;;;24.63;20.58;;;13.20;93.10;;;;;;4981557;28;20427;-73
2022/09/15 00:58:13;;;;;;;24.80;19.33;;;13.20;93.00;;;;;;4981450;28;21132;-73
2022/09/15 01:00:46;;;;;;;25.90;20.92;;;13.30;93.10;;;;;;4978896;28;20088;-73
2022/09/15 01:03:12;;;;;;;25.67;21.60;;;13.30;93.10;;;;;;4983233;28;20545;-72
2022/09/15 01:05:46;;;;;;;27.02;21.92;;;13.40;93.10;;;;;;4982499;28;20041;-72
2022/09/15 01:08:27;;;;;;;27.60;21.15;;;13.40;93.20;;;;;;4981897;28;20035;-72
2022/09/15 01:10:52;;;;;;;23.98;19.60;;;13.40;93.10;;;;;;4984891;28;20188;-72
2022/09/15 01:13:18;;;;;;;24.70;21.85;;;13.50;93.20;;;;;;4981791;28;20486;-73
2022/09/15 01:16:10;;;;;;;28.77;24.08;;;13.50;93.00;;;;;;4982095;28;21321;-72
2022/09/15 01:19:01;;;;;;;25.90;22.75;;;13.50;93.00;;;;;;4962776;28;20066;-72
2022/09/15 01:21:42;;;;;;;27.50;23.08;;;13.50;93.00;;;;;;4962344;28;20070;-73
2022/09/15 01:24:51;;;;;;;27.60;22.98;;;13.60;93.00;;;;;;4976093;28;20035;-73
2022/09/15 01:27:39;;;;;;;27.98;23.42;;;13.60;93.10;;;;;;4979524;28;20121;-73
2022/09/15 01:30:09;;;;;;;27.52;23.80;;;13.60;93.10;;;;;;4977402;28;20093;-72
2022/09/15 01:33:03;;;;;;;25.65;21.77;;;13.70;93.10;;;;;;4983757;28;20046;-72
2022/09/15 01:35:49;;;;;;;27.00;23.98;;;13.70;93.10;;;;;;4960511;28;20038;-72
2022/09/15 01:38:15;;;;;;;32.22;28.77;;;13.70;93.20;;;;;;4961844;28;20041;-73
2022/09/15 01:40:47;;;;;;;30.85;26.20;;;13.70;93.20;;;;;;4964936;28;20034;-72
2022/09/15 01:43:16;;;;;;;27.05;23.45;;;13.70;93.20;;;;;;4961935;28;20125;-73
2022/09/15 01:45:43;;;;;;;29.00;25.20;;;13.80;93.30;;;;;;4962457;28;20038;-73
2022/09/15 01:48:10;;;;;;;27.95;24.58;;;13.80;93.20;;;;;;4963378;28;20126;-73
2022/09/15 01:50:43;;;;;;;25.33;22.63;;;13.80;93.20;;;;;;4967340;28;20038;-72
2022/09/15 01:53:14;;;;;;;30.05;25.08;;;13.80;93.20;;;;;;4983046;28;20066;-73
2022/09/15 01:55:45;;;;;;;26.13;22.63;;;13.80;93.20;;;;;;4983361;28;20446;-72
2022/09/15 01:58:11;;;;;;;31.77;28.25;;;13.80;93.20;;;;;;4982697;28;20451;-73
2022/09/15 02:00:42;;;;;;;28.33;25.17;;;13.90;93.30;;;;;;4978903;28;20517;-72
2022/09/15 02:03:21;;;;;;;32.90;29.10;;;13.80;93.20;;;;;;4981754;28;20516;-73
2022/09/15 02:06:01;;;;;;;34.33;28.92;;;13.90;93.20;;;;;;4982073;28;20038;-73
2022/09/15 02:08:43;;;;;;;34.05;30.38;;;13.90;93.30;;;;;;4962545;28;20039;-72
2022/09/15 02:11:23;;;;;;;34.08;29.70;;;13.90;93.30;;;;;;4963852;28;20062;-72
2022/09/15 02:14:10;;;;;;;31.60;28.10;;;14.00;93.40;;;;;;4977264;28;20054;-73
2022/09/15 02:16:37;;;;;;;30.40;27.20;;;14.00;93.30;;;;;;4983193;28;20162;-72
2022/09/15 02:19:30;;;;;;;27.75;24.70;;;14.10;93.30;;;;;;4973954;28;20038;-72
2022/09/15 02:22:27;;;;;;;28.42;25.20;;;14.00;93.30;;;;;;4981828;28;20046;-72
2022/09/15 02:25:01;;;;;;;27.73;24.73;;;14.00;93.20;;;;;;4982507;28;20132;-72
2022/09/15 02:27:30;;;;;;;32.92;25.95;;;14.00;93.30;;;;;;4980949;28;20495;-72
2022/09/15 02:30:04;;;;;;;31.20;26.05;;;14.00;93.30;;;;;;4982621;28;20054;-73
2022/09/15 02:32:33;;;;;;;34.30;27.02;;;14.00;93.30;;;;;;4982269;28;20042;-72
2022/09/15 02:35:05;;;;;;;30.35;24.58;;;14.00;93.30;;;;;;4982043;28;20058;-72
2022/09/15 02:37:31;;;;;;;26.10;23.15;;;14.00;93.30;;;;;;4979514;28;20061;-73
2022/09/15 02:39:58;;;;;;;29.05;25.67;;;14.00;93.30;;;;;;4983426;28;20038;-72
2022/09/15 02:42:26;;;;;;;27.77;24.77;;;14.00;93.30;;;;;;4979468;28;20346;-72
2022/09/15 02:44:52;;;;;;;27.98;24.85;;;14.00;93.40;;;;;;4983277;28;20049;-72
2022/09/15 02:47:18;;;;;;;26.98;24.13;;;14.00;93.30;;;;;;4979935;28;20038;-72
2022/09/15 02:49:43;;;;;;;29.23;25.45;;;14.00;93.30;;;;;;4983165;28;20058;-73
2022/09/15 02:52:09;;;;;;;29.45;26.42;;;14.00;93.30;;;;;;4993767;28;20109;-72
2022/09/15 02:54:35;;;;;;;33.15;29.55;;;14.00;93.30;;;;;;4991806;28;20490;-73
2022/09/15 02:57:00;;;;;;;32.83;29.10;;;14.00;93.30;;;;;;4990788;28;20043;-72
2022/09/15 03:00:11;;;;;;;32.33;28.98;;;14.00;93.30;;;;;;4983450;28;20042;-72
2022/09/15 03:02:12;;;;;;;36.47;32.67;;;14.00;93.40;;;;;;4978217;28;20490;-72
2022/09/15 03:04:38;;;;;;;41.42;37.08;;;13.90;93.40;;;;;;4979944;28;20042;-72
2022/09/15 03:07:04;;;;;;;40.70;36.42;;;14.00;93.40;;;;;;4979781;28;20034;-73
2022/09/15 03:09:29;;;;;;;39.13;35.13;;;14.00;93.40;;;;;;4982812;28;20386;-73
2022/09/15 03:11:55;;;;;;;37.53;33.42;;;14.00;93.30;;;;;;4981924;28;20443;-73
2022/09/15 03:14:21;;;;;;;37.00;32.95;;;14.10;93.20;;;;;;4981483;28;20042;-72
2022/09/15 03:16:46;;;;;;;38.28;34.17;;;14.00;93.30;;;;;;4982466;28;20042;-73
2022/09/15 03:19:12;;;;;;;41.28;35.17;;;14.10;93.20;;;;;;4984045;28;20038;-72
2022/09/15 03:21:38;;;;;;;34.53;31.05;;;14.00;93.30;;;;;;4984175;28;20084;-73
2022/09/15 03:24:03;;;;;;;41.35;35.60;;;14.10;93.30;;;;;;4985941;28;20046;-72
2022/09/15 03:26:29;;;;;;;38.83;34.22;;;14.10;93.30;;;;;;4985679;28;20661;-73
2022/09/15 03:28:55;;;;;;;37.15;33.22;;;14.10;93.30;;;;;;4986167;28;20529;-72
2022/09/15 03:31:21;;;;;;;36.67;30.60;;;14.10;93.30;;;;;;4979889;28;20050;-72
2022/09/15 03:33:47;;;;;;;35.97;32.20;;;14.10;93.30;;;;;;4984070;28;20034;-72
2022/09/15 03:36:13;;;;;;;37.13;33.13;;;14.10;93.30;;;;;;4976352;28;20115;-73
2022/09/15 03:38:39;;;;;;;37.17;32.83;;;14.10;93.30;;;;;;4975072;28;20363;-72
2022/09/15 03:41:07;;;;;;;38.22;34.10;;;14.10;93.30;;;;;;4977603;28;20289;-72
2022/09/15 03:43:34;;;;;;;35.47;31.77;;;14.10;93.20;;;;;;4973701;28;20046;-72
2022/09/15 03:46:00;;;;;;;34.78;31.25;;;14.10;93.20;;;;;;4975838;28;20121;-73
2022/09/15 03:48:28;;;;;;;35.05;31.35;;;14.10;93.20;;;;;;4975081;28;20039;-72
2022/09/15 03:50:54;;;;;;;38.53;34.33;;;14.10;93.20;;;;;;4977918;28;20076;-73
2022/09/15 03:53:19;;;;;;;37.97;33.88;;;14.10;93.30;;;;;;4976473;28;20042;-73
2022/09/15 03:55:47;;;;;;;40.25;35.17;;;14.10;93.30;;;;;;4985741;28;20042;-72
2022/09/15 03:58:13;;;;;;;40.53;35.97;;;14.10;93.30;;;;;;4983180;28;20514;-72
2022/09/15 04:00:39;;;;;;;39.75;35.47;;;14.10;93.30;;;;;;4982465;28;20038;-72
2022/09/15 04:03:06;;;;;;;40.42;35.78;;;14.10;93.40;;;;;;4984664;28;20485;-72
2022/09/15 04:05:32;;;;;;;39.55;35.33;;;14.10;93.40;;;;;;4983047;28;20045;-73
2022/09/15 04:07:58;;;;;;;40.25;36.00;;;14.10;93.40;;;;;;4981109;28;20038;-73
2022/09/15 04:10:24;;;;;;;42.95;37.47;;;14.10;93.40;;;;;;4979762;28;20038;-73
2022/09/15 04:12:51;;;;;;;42.72;36.50;;;14.10;93.40;;;;;;4985662;28;20030;-72
2022/09/15 04:15:17;;;;;;;38.05;33.90;;;14.10;93.40;;;;;;4982185;28;20034;-73
2022/09/15 04:17:43;;;;;;;38.72;34.65;;;14.10;93.40;;;;;;4985340;28;20031;-73
2022/09/15 04:20:09;;;;;;;39.83;35.55;;;14.10;93.40;;;;;;4983465;28;20038;-73
2022/09/15 04:22:34;;;;;;;35.35;31.58;;;14.10;93.40;;;;;;4981724;28;20045;-73
2022/09/15 04:25:00;;;;;;;38.20;34.08;;;14.10;93.40;;;;;;4981114;28;20046;-72
2022/09/15 04:27:26;;;;;;;37.17;33.33;;;14.10;93.40;;;;;;4980844;28;20813;-73
2022/09/15 04:29:52;;;;;;;39.40;35.22;;;14.10;93.40;;;;;;4976211;28;20364;-72
2022/09/15 04:32:19;;;;;;;38.22;33.88;;;14.10;93.50;;;;;;4973303;28;20441;-73
2022/09/15 04:34:45;;;;;;;37.58;33.47;;;14.10;93.60;;;;;;4973479;28;20046;-73
2022/09/15 04:37:12;;;;;;;35.53;31.67;;;14.10;93.60;;;;;;4973591;28;20121;-72
2022/09/15 04:39:37;;;;;;;36.42;32.72;;;14.10;93.60;;;;;;4975647;28;20030;-72
2022/09/15 04:42:06;;;;;;;37.67;33.78;;;14.10;93.60;;;;;;4974304;28;20042;-73
2022/09/15 04:44:32;;;;;;;36.65;32.58;;;14.10;93.50;;;;;;4974553;28;20047;-73
2022/09/15 04:46:58;;;;;;;32.20;28.50;;;14.10;93.50;;;;;;4974675;28;20031;-73
2022/09/15 04:49:23;;;;;;;35.17;31.35;;;14.10;93.50;;;;;;4970295;28;20057;-73
2022/09/15 04:51:52;;;;;;;37.63;33.05;;;14.00;93.60;;;;;;4973034;28;20042;-72
2022/09/15 04:54:18;;;;;;;36.15;31.52;;;14.00;93.60;;;;;;4972840;28;20445;-72
2022/09/15 04:56:44;;;;;;;34.15;28.88;;;14.00;93.50;;;;;;4977402;28;20033;-73
2022/09/15 04:59:14;;;;;;;39.25;33.90;;;14.00;93.50;;;;;;4982727;28;20031;-73
2022/09/15 05:01:40;;;;;;;38.95;31.58;;;14.00;93.40;;;;;;4976604;28;20109;-72
2022/09/15 05:04:06;;;;;;;35.10;30.20;;;14.00;93.40;;;;;;4972768;28;20039;-72
2022/09/15 05:06:33;;;;;;;36.65;30.83;;;14.00;93.50;;;;;;4977165;28;20039;-72
2022/09/15 05:08:59;;;;;;;37.00;30.27;;;14.00;93.40;;;;;;4981442;28;20038;-72
2022/09/15 05:11:27;;;;;;;36.35;32.45;;;14.00;93.40;;;;;;4973203;28;20576;-72
2022/09/15 05:13:53;;;;;;;38.47;34.28;;;14.00;93.40;;;;;;4970590;28;20166;-72
2022/09/15 05:16:22;;;;;;;34.92;28.77;;;14.00;93.40;;;;;;4969965;28;20088;-72
2022/09/15 05:18:49;;;;;;;32.97;28.80;;;14.00;93.40;;;;;;4971086;28;20050;-72
2022/09/15 05:21:17;;;;;;;35.70;31.88;;;14.00;93.40;;;;;;4968462;28;20040;-72
2022/09/15 05:23:42;;;;;;;39.60;34.92;;;13.90;93.40;;;;;;4969090;28;20477;-72
2022/09/15 05:26:12;;;;;;;41.40;35.70;;;14.00;93.30;;;;;;4971743;28;20121;-72
2022/09/15 05:28:38;;;;;;;41.15;36.70;;;14.00;93.30;;;;;;4971191;28;20042;-72
2022/09/15 05:31:10;;;;;;;41.67;34.28;;;14.10;93.30;;;;;;4971829;28;20027;-72
2022/09/15 05:33:35;;;;;;;37.20;32.78;;;14.10;93.30;;;;;;4968573;28;20084;-72
2022/09/15 05:36:02;;;;;;;39.88;33.15;;;14.10;93.40;;;;;;4978037;28;20041;-72
2022/09/15 05:38:29;;;;;;;43.45;35.65;;;14.10;93.40;;;;;;4967553;28;20097;-72
2022/09/15 05:41:06;;;;;;;39.10;33.72;;;14.10;93.50;;;;;;4961816;28;20034;-73
2022/09/15 05:43:33;;;;;;;41.15;35.67;;;14.10;93.50;;;;;;4964352;28;20061;-73
2022/09/15 05:45:59;;;;;;;44.63;36.78;;;14.20;93.40;;;;;;4956282;28;20046;-73
2022/09/15 05:48:26;;;;;;;37.35;32.00;;;14.20;93.40;;;;;;4957387;28;20070;-73
2022/09/15 05:50:53;;;;;;;41.17;33.30;;;14.20;93.40;;;;;;4962398;28;20039;-73
2022/09/15 05:53:20;;;;;;;39.75;31.98;;;14.20;93.40;;;;;;4962189;28;20089;-73
2022/09/15 05:55:46;;;;;;;41.28;33.60;;;14.20;93.50;;;;;;4961148;28;20035;-73
2022/09/15 05:58:13;;;;;;;38.15;31.00;;;14.30;93.40;;;;;;4961474;28;20038;-73
2022/09/15 06:00:40;;;;;;;39.30;31.98;;;14.20;93.50;;;;;;4960651;28;20101;-73
2022/09/15 06:03:07;;;;;;;37.33;31.25;;;14.20;93.50;;;;;;4962769;28;20045;-73
2022/09/15 06:05:33;;;;;;;35.30;29.02;;;14.30;93.60;;;;;;4963571;28;20038;-73
2022/09/15 06:07:58;;;;;;;33.33;28.10;;;14.30;93.70;;;;;;4959175;28;20108;-73
2022/09/15 06:10:24;;;;;;;36.90;29.77;;;14.40;93.80;;;;;;4956815;28;20467;-73
2022/09/15 06:12:53;;;;;;;36.33;30.35;;;14.50;93.80;;;;;;4961788;28;20035;-73
2022/09/15 06:15:20;;;;;;;29.02;25.48;;;14.60;93.80;;;;;;4980896;28;20545;-73
2022/09/15 06:17:46;;;;;;;34.80;29.60;;;14.60;93.80;;;;;;4984027;28;20484;-73
2022/09/15 06:20:12;;;;;;;37.13;30.90;;;14.70;93.70;;;;;;4982366;28;20038;-73
2022/09/15 06:22:38;;;;;;;34.30;29.88;;;14.80;93.50;;;;;;4979208;28;20101;-73
2022/09/15 06:25:04;;;;;;;38.20;31.90;;;14.80;93.40;;;;;;4981880;28;20054;-73
2022/09/15 06:27:30;;;;;;;32.70;27.58;;;14.90;93.30;;;;;;4986789;28;20030;-73
2022/09/15 06:29:56;;;;;;;33.53;27.02;;;14.90;93.20;;;;;;4982350;28;20552;-73
2022/09/15 06:32:21;;;;;;;41.50;32.67;;;15.00;93.10;;;;;;4982445;28;20031;-73
2022/09/15 06:34:47;;;;;;;33.75;28.40;;;15.00;93.00;;;;;;4986376;28;20418;-73
2022/09/15 06:37:13;;;;;;;36.55;28.45;;;15.00;93.00;;;;;;4988357;28;20046;-73
2022/09/15 06:39:39;;;;;;;34.88;27.08;;;15.10;92.80;;;;;;4982962;28;20066;-73
2022/09/15 06:42:06;;;;;;;33.10;28.15;;;15.10;92.80;;;;;;4981347;28;20080;-73
2022/09/15 06:44:31;;;;;;;37.15;28.73;;;15.10;92.80;;;;;;4974355;28;20050;-72
2022/09/15 06:46:57;;;;;;;32.00;25.80;;;15.10;92.70;;;;;;4976336;28;20123;-72
2022/09/15 06:49:23;;;;;;;31.15;26.10;;;15.10;92.80;;;;;;4980807;28;20064;-72
2022/09/15 06:51:49;;;;;;;28.98;24.08;;;15.20;92.70;;;;;;4975712;28;20054;-72
2022/09/15 06:54:15;;;;;;;35.17;25.55;;;15.20;92.80;;;;;;4982357;28;20038;-71
2022/09/15 06:56:41;;;;;;;35.13;26.15;;;15.30;92.60;;;;;;4975659;28;20582;-71
2022/09/15 06:59:10;;;;;;;35.90;25.40;;;15.40;92.50;;;;;;4979919;28;20187;-72
2022/09/15 07:01:36;;;;;;;31.27;23.70;;;15.60;92.30;;;;;;4979857;28;20293;-72
2022/09/15 07:04:04;;;;;;;31.38;23.05;;;15.70;92.30;;;;;;4978276;28;20073;-73
2022/09/15 07:06:31;;;;;;;29.10;22.27;;;15.80;91.90;;;;;;4978989;28;20100;-72
2022/09/15 07:08:58;;;;;;;28.05;21.75;;;16.00;91.50;;;;;;4981116;28;20576;-72
2022/09/15 07:11:24;;;;;;;26.88;20.58;;;16.10;91.10;;;;;;4983907;28;20041;-71
2022/09/15 07:13:50;;;;;;;28.85;19.65;;;16.10;90.60;;;;;;4977464;28;20046;-72
2022/09/15 07:16:18;;;;;;;23.75;17.65;;;16.30;90.00;;;;;;4975476;28;20461;-72
2022/09/15 07:18:45;;;;;;;24.38;17.77;;;16.40;89.40;;;;;;4979809;28;20255;-72
2022/09/15 07:21:14;;;;;;;21.92;16.90;;;16.50;88.90;;;;;;4980696;28;20030;-73
2022/09/15 07:23:40;;;;;;;24.02;16.75;;;16.50;88.50;;;;;;4976266;28;20108;-73
2022/09/15 07:26:09;;;;;;;21.45;15.00;;;16.50;87.50;;;;;;4981937;28;20030;-73
2022/09/15 07:28:35;;;;;;;18.95;13.85;;;16.50;87.40;;;;;;4975807;28;20035;-74
2022/09/15 07:31:03;;;;;;;24.20;14.75;;;16.60;86.80;;;;;;4973942;28;20402;-75
2022/09/15 07:33:29;;;;;;;18.17;12.32;;;16.70;86.40;;;;;;4980453;28;20508;-75
2022/09/15 07:35:55;;;;;;;19.75;12.88;;;16.80;86.20;;;;;;4983581;28;20038;-75
2022/09/15 07:38:21;;;;;;;17.48;12.10;;;16.80;85.50;;;;;;4983804;28;20453;-75
2022/09/15 07:40:47;;;;;;;18.33;11.65;;;16.80;85.70;;;;;;4981605;28;20521;-75
2022/09/15 07:43:15;;;;;;;17.10;11.18;;;16.90;85.60;;;;;;4985059;28;20046;-75
2022/09/15 07:45:41;;;;;;;19.13;11.25;;;16.90;85.00;;;;;;4984794;28;20034;-75
2022/09/15 07:48:07;;;;;;;16.27;9.93;;;16.90;85.00;;;;;;4981578;28;20038;-75
2022/09/15 07:50:32;;;;;;;15.00;8.65;;;16.80;84.30;;;;;;4981228;28;20057;-74
2022/09/15 07:52:58;;;;;;;14.90;9.18;;;16.90;83.90;;;;;;4986003;28;20115;-75
2022/09/15 07:55:24;;;;;;;14.13;7.88;;;16.90;84.20;;;;;;4985281;28;20144;-74
2022/09/15 07:57:57;;;;;;;11.07;8.35;;;16.90;84.20;;;;;;4987461;28;20049;-73
2022/09/15 08:00:23;;;;;;;15.20;7.55;;;17.00;84.20;;;;;;4982697;28;20054;-74
2022/09/15 08:02:49;;;;;;;14.35;8.43;;;17.00;84.10;;;;;;4987075;28;20038;-74
2022/09/15 08:05:15;;;;;;;14.10;7.72;;;17.10;83.90;;;;;;4985241;28;20066;-75
2022/09/15 08:07:40;;;;;;;13.75;7.50;;;17.10;83.10;;;;;;4984578;28;20050;-74
2022/09/15 08:10:06;;;;;;;13.10;7.20;;;17.10;83.10;;;;;;4985207;28;20569;-75
2022/09/15 08:12:32;;;;;;;11.43;6.63;;;17.20;83.00;;;;;;4976631;28;20045;-74
2022/09/15 08:14:58;;;;;;;12.15;6.10;;;17.30;83.00;;;;;;4982721;28;20430;-74
2022/09/15 08:17:24;;;;;;;13.25;6.10;;;17.40;82.70;;;;;;4983401;28;20481;-75
2022/09/15 08:19:49;;;;;;;10.27;5.72;;;17.30;80.30;;;;;;4985374;28;20035;-74
2022/09/15 08:22:15;;;;;;;11.05;5.75;;;17.50;80.50;;;;;;4983432;28;20042;-76
2022/09/15 08:24:40;;;;;;;11.70;6.15;;;17.80;79.80;;;;;;4987758;28;20046;-77
2022/09/15 08:27:06;;;;;;;11.98;5.68;;;18.00;79.20;;;;;;4983387;28;20092;-74
2022/09/15 08:29:32;;;;;;;12.27;6.03;;;17.80;77.80;;;;;;4983930;28;20030;-75
2022/09/15 08:31:57;;;;;;;13.10;6.32;;;17.90;77.50;;;;;;4981775;28;20026;-76
2022/09/15 08:34:23;;;;;;;17.17;6.10;;;17.90;76.30;;;;;;4980629;28;20462;-74
2022/09/15 08:36:49;;;;;;;15.85;5.35;;;17.90;76.20;;;;;;4984265;28;20122;-74
2022/09/15 08:39:14;;;;;;;11.60;4.88;;;18.00;76.20;;;;;;4982006;28;20038;-74
2022/09/15 08:41:46;;;;;;;9.60;4.50;;;18.10;75.50;;;;;;4984753;28;20042;-76
2022/09/15 08:44:20;;;;;;;8.65;4.15;;;18.30;75.30;;;;;;4981989;28;20046;-76
2022/09/15 08:46:52;;;;;;;8.35;3.60;;;18.50;73.00;;;;;;4983619;28;20053;-74
2022/09/15 08:49:32;;;;;;;10.73;3.88;;;18.70;72.20;;;;;;4981275;28;20039;-74
2022/09/15 08:52:03;;;;;;;9.15;3.75;;;18.70;74.30;;;;;;4984087;28;20109;-74
2022/09/15 08:54:30;;;;;;;7.05;3.47;;;18.70;73.20;;;;;;4976450;28;20368;-74
2022/09/15 08:56:59;;;;;;;6.95;3.28;;;18.60;72.30;;;;;;4979058;28;20111;-74
2022/09/15 08:59:30;;;;;;;10.35;3.30;;;18.70;71.00;;;;;;4977459;28;20117;-74
2022/09/15 09:02:11;;;;;;;8.50;2.70;;;18.90;70.70;;;;;;4975692;28;20039;-74
2022/09/15 09:04:58;;;;;;;7.53;2.70;;;19.10;69.60;;;;;;4957639;28;20468;-74
2022/09/15 09:08:01;;;;;;;7.65;2.13;;;19.20;68.60;;;;;;4955007;28;20103;-74
2022/09/15 09:10:44;;;;;;;9.57;2.30;;;19.10;67.50;;;;;;4955577;28;20387;-74
2022/09/15 09:13:19;;;;;;;8.07;2.60;;;19.10;68.40;;;;;;4955822;28;20054;-74
2022/09/15 09:16:26;;;;;;;7.72;2.38;;;19.30;69.50;;;;;;4959041;28;20488;-74
2022/09/15 09:19:02;;;;;;;8.82;2.58;;;19.30;68.00;;;;;;4956933;28;20118;-75
2022/09/15 09:21:37;;;;;;;7.22;2.53;;;19.50;68.10;;;;;;4965551;28;20051;-76
2022/09/15 09:24:16;;;;;;;6.97;2.10;;;19.70;68.00;;;;;;4970015;28;20076;-75
2022/09/15 09:26:42;;;;;;;7.40;1.90;;;19.70;67.90;;;;;;4985368;28;20966;-75
2022/09/15 09:29:25;;;;;;;7.97;2.05;;;20.10;67.00;;;;;;4985052;28;20034;-74
2022/09/15 09:31:53;;;;;;;7.22;2.13;;;20.20;65.00;;;;;;4984503;28;20062;-74
2022/09/15 09:34:42;;;;;;;8.82;2.50;;;20.50;64.90;;;;;;4980826;28;20062;-76
2022/09/15 09:37:14;;;;;;;6.63;2.03;;;20.60;64.90;;;;;;4984365;28;20506;-75
2022/09/15 09:39:40;;;;;;;12.45;2.70;;;20.30;64.90;;;;;;4982600;28;20444;-75
2022/09/15 09:42:15;;;;;;;9.18;2.00;;;20.20;65.00;;;;;;4976448;28;20524;-74
2022/09/15 09:44:40;;;;;;;7.25;2.40;;;20.00;64.70;;;;;;4983237;28;20170;-75
2022/09/15 09:47:06;;;;;;;7.40;2.15;;;20.00;64.90;;;;;;4983319;28;20172;-75
2022/09/15 09:49:44;;;;;;;6.82;1.90;;;19.70;67.10;;;;;;4985258;28;20483;-74
2022/09/15 09:52:11;;;;;;;7.93;2.30;;;19.60;67.00;;;;;;4985501;28;20100;-74
2022/09/15 09:54:37;;;;;;;5.75;1.98;;;19.80;68.20;;;;;;4985605;28;20042;-74
2022/09/15 09:57:12;;;;;;;6.05;1.90;;;19.80;66.00;;;;;;4983395;28;20026;-74
2022/09/15 09:59:46;;;;;;;7.22;1.63;;;20.10;65.50;;;;;;4981628;28;20410;-74
2022/09/15 10:02:16;;;;;;;6.18;2.08;;;19.90;66.20;;;;;;4981927;28;20328;-74
2022/09/15 10:04:50;;;;;;;5.75;2.00;;;20.00;66.00;;;;;;4983381;28;20069;-75
2022/09/15 10:07:19;;;;;;;9.93;2.83;;;20.00;64.60;;;;;;4981307;28;20109;-76
2022/09/15 10:10:04;;;;;;;11.35;2.20;;;20.10;65.40;;;;;;4980540;28;20299;-75
2022/09/15 10:12:39;;;;;;;6.60;1.83;;;20.00;64.40;;;;;;4962100;28;20089;-75
2022/09/15 10:15:19;;;;;;;7.97;2.60;;;20.10;65.30;;;;;;4972276;28;20160;-76
2022/09/15 10:17:48;;;;;;;7.45;2.33;;;20.60;65.30;;;;;;4964750;28;20036;-75
2022/09/15 10:20:46;;;;;;;8.23;2.30;;;20.70;64.90;;;;;;4976913;28;20043;-74
2022/09/15 10:23:20;;;;;;;8.32;2.00;;;21.20;63.00;;;;;;4977628;28;20107;-75
2022/09/15 10:25:46;;;;;;;8.02;2.17;;;21.30;62.70;;;;;;4982288;28;20447;-74
2022/09/15 10:28:20;;;;;;;9.70;2.33;;;21.00;62.50;;;;;;4979559;28;20061;-74
2022/09/15 10:31:01;;;;;;;6.40;2.10;;;21.00;62.70;;;;;;4983076;28;20030;-75
2022/09/15 10:33:29;;;;;;;5.18;1.90;;;20.80;62.70;;;;;;4979674;28;20177;-75
2022/09/15 10:36:02;;;;;;;8.45;2.10;;;20.40;63.70;;;;;;4983959;28;20059;-75
2022/09/15 10:38:42;;;;;;;11.25;2.17;;;20.10;64.40;;;;;;4981136;28;20157;-75
2022/09/15 10:42:13;;;;;;;5.40;2.00;;;20.10;64.80;;;;;;4985723;28;20062;-75
2022/09/15 10:45:02;;;;;;;5.65;1.60;;;20.10;61.40;;;;;;4942753;28;20051;-75
2022/09/15 10:47:45;;;;;;;6.43;1.80;;;20.00;61.90;;;;;;4982695;28;20119;-76
2022/09/15 10:50:30;;;;;;;9.75;2.28;;;19.80;62.00;;;;;;4984724;28;20038;-75
2022/09/15 10:53:21;;;;;;;12.52;2.25;;;19.40;65.60;;;;;;4983956;28;20478;-76
2022/09/15 10:56:39;;;;;;;8.10;1.98;;;18.90;67.80;;;;;;4964505;28;20055;-76
2022/09/15 10:59:16;;;;;;;8.10;1.70;;;18.70;68.40;;;;;;4978429;28;20039;-76
2022/09/15 11:02:03;;;;;;;5.80;1.42;;;18.60;68.20;;;;;;4988396;28;20104;-75
2022/09/15 11:04:43;;;;;;;6.93;1.90;;;18.50;68.20;;;;;;4985017;28;20240;-73
2022/09/15 11:07:54;;;;;;;7.80;1.90;;;18.50;68.60;;;;;;4984445;28;20386;-74
2022/09/15 11:10:28;;;;;;;7.35;1.58;;;18.50;67.70;;;;;;4981645;28;20113;-74
2022/09/15 11:13:06;;;;;;;4.53;1.58;;;18.60;67.10;;;;;;4985037;28;20030;-75
2022/09/15 11:15:32;;;;;;;6.63;1.60;;;18.60;66.50;;;;;;4984469;28;20038;-75
2022/09/15 11:18:18;;;;;;;5.05;1.58;;;18.80;66.50;;;;;;4981723;28;20049;-76
2022/09/15 11:21:28;;;;;;;8.50;2.25;;;19.10;64.50;;;;;;4983684;28;20728;-75
2022/09/15 11:24:25;;;;;;;5.47;1.50;;;19.50;63.60;;;;;;4983245;28;20060;-74
2022/09/15 11:27:24;;;;;;;6.30;1.60;;;19.60;62.00;;;;;;4982830;28;20519;-75
2022/09/15 11:30:00;;;;;;;7.45;1.40;;;20.00;63.20;;;;;;4979138;28;20031;-75
2022/09/15 11:33:03;;;;;;;4.75;1.40;;;20.20;60.60;;;;;;4975152;28;20089;-75
2022/09/15 11:35:39;;;;;;;7.15;1.73;;;20.00;60.10;;;;;;4958133;28;20122;-75
2022/09/15 11:38:36;;;;;;;7.75;1.70;;;19.70;60.70;;;;;;4964475;28;20049;-75
2022/09/15 11:41:14;;;;;;;6.05;1.60;;;19.80;61.60;;;;;;4975807;28;20487;-75
2022/09/15 11:44:05;;;;;;;6.43;1.77;;;20.00;62.70;;;;;;4979003;28;20526;-75
2022/09/15 11:46:53;;;;;;;11.20;2.00;;;19.70;63.20;;;;;;4963477;28;20534;-76
2022/09/15 11:49:24;;;;;;;6.10;1.60;;;19.70;63.00;;;;;;4952920;28;20047;-75
2022/09/15 11:52:13;;;;;;;6.47;1.77;;;19.60;63.20;;;;;;4959147;28;20038;-75
2022/09/15 11:54:59;;;;;;;5.80;1.45;;;19.80;63.70;;;;;;4985549;28;20073;-75
2022/09/15 11:57:33;;;;;;;8.52;1.70;;;19.80;63.40;;;;;;4979779;28;20126;-75
2022/09/15 12:00:11;;;;;;;5.57;1.50;;;19.90;63.80;;;;;;4975571;28;20081;-75
2022/09/15 12:02:58;;;;;;;5.60;1.50;;;19.80;63.00;;;;;;4976940;28;20521;-75
2022/09/15 12:05:33;;;;;;;6.22;1.30;;;19.80;64.40;;;;;;4974350;28;20043;-75
2022/09/15 12:08:05;;;;;;;6.15;1.65;;;19.70;64.50;;;;;;4979168;28;20030;-75
2022/09/15 12:10:37;;;;;;;6.18;1.85;;;19.80;64.50;;;;;;4980093;28;20038;-75
2022/09/15 12:13:04;;;;;;;7.88;2.00;;;19.90;63.80;;;;;;4933779;28;1272338;-76
2022/09/15 12:15:30;;;;;;;8.98;1.65;;;20.00;63.40;;;;;;4980645;28;20510;-75
2022/09/15 12:18:08;;;;;;;5.88;1.70;;;20.00;63.20;;;;;;4979969;28;20546;-75
2022/09/15 12:20:40;;;;;;;17.90;2.35;;;20.00;62.70;;;;;;4965466;28;20054;-75
2022/09/15 12:23:10;;;;;;;7.85;1.83;;;19.90;62.70;;;;;;4962394;28;20075;-76
2022/09/15 12:26:04;;;;;;;7.45;1.65;;;20.10;62.20;;;;;;4956539;28;20922;-75
2022/09/15 12:28:41;;;;;;;4.93;1.35;;;20.30;60.90;;;;;;4978770;28;20038;-76
2022/09/15 12:31:24;;;;;;;5.10;1.30;;;20.40;59.50;;;;;;4980262;28;20057;-75
2022/09/15 12:34:34;;;;;;;7.93;1.60;;;20.70;59.50;;;;;;4979946;28;20407;-76
2022/09/15 12:37:11;;;;;;;7.97;1.50;;;20.90;57.00;;;;;;4969749;28;20042;-78
2022/09/15 12:39:42;;;;;;;6.65;1.70;;;21.10;56.10;;;;;;4965014;28;20192;-75
2022/09/15 12:42:30;;;;;;;6.20;1.40;;;21.10;56.00;;;;;;4975856;28;20042;-76
2022/09/15 12:45:03;;;;;;;4.88;1.02;;;21.00;55.80;;;;;;4981079;28;20173;-75
2022/09/15 12:47:39;;;;;;;7.60;1.83;;;21.00;55.40;;;;;;4984022;28;20043;-75
2022/09/15 12:50:29;;;;;;;7.00;1.55;;;21.10;54.80;;;;;;4983477;28;20039;-75
2022/09/15 12:52:59;;;;;;;6.07;1.42;;;20.70;56.10;;;;;;4984440;28;20059;-75
2022/09/15 12:55:54;;;;;;;6.10;1.48;;;20.60;56.20;;;;;;4983962;28;20042;-76
2022/09/15 12:58:34;;;;;;;6.00;1.60;;;20.90;56.10;;;;;;4984426;28;20114;-77